sensor_id;sensor_type;location;lat;lon;timestamp;temperature;humidity
58517;DHT22;44308;50.810;0.284;2023-06-14T00:02:09;15.80;99.90
58517;DHT22;44308;50.810;0.284;2023-06-14T00:04:35;15.70;99.90
58517;DHT22;44308;50.810;0.284;2023-06-14T00:07:02;15.70;99.90
58517;DHT22;44308;50.810;0.284;2023-06-14T00:09:28;15.70;99.90
58517;DHT22;44308;50.810;0.284;2023-06-14T00:11:54;15.70;99.90
58517;DHT22;44308;50.810;0.284;2023-06-14T00:14:19;15.70;99.90
58517;DHT22;44308;50.810;0.284;2023-06-14T00:16:45;15.60;99.90
58517;DHT22;44308;50.810;0.284;2023-06-14T00:19:12;15.70;99.90
58517;DHT22;44308;50.810;0.284;2023-06-14T00:21:38;15.60;99.90
58517;DHT22;44308;50.810;0.284;2023-06-14T00:24:04;15.60;99.90
58517;DHT22;44308;50.810;0.284;2023-06-14T00:26:30;15.60;99.90
58517;DHT22;44308;50.810;0.284;2023-06-14T00:28:56;15.60;99.90
58517;DHT22;44308;50.810;0.284;2023-06-14T00:31:22;15.60;99.90
58517;DHT22;44308;50.810;0.284;2023-06-14T00:33:48;15.50;99.90
58517;DHT22;44308;50.810;0.284;2023-06-14T00:36:14;15.50;99.90
58517;DHT22;44308;50.810;0.284;2023-06-14T00:38:39;15.50;99.90
58517;DHT22;44308;50.810;0.284;2023-06-14T00:41:05;15.40;99.90
58517;DHT22;44308;50.810;0.284;2023-06-14T00:43:31;15.50;99.90
58517;DHT22;44308;50.810;0.284;2023-06-14T00:45:56;15.50;99.90
58517;DHT22;44308;50.810;0.284;2023-06-14T00:48:22;15.50;99.90
58517;DHT22;44308;50.810;0.284;2023-06-14T00:50:50;15.50;99.90
58517;DHT22;44308;50.810;0.284;2023-06-14T00:53:17;15.60;99.90
58517;DHT22;44308;50.810;0.284;2023-06-14T00:55:48;15.50;99.90
58517;DHT22;44308;50.810;0.284;2023-06-14T00:58:14;15.50;99.90
58517;DHT22;44308;50.810;0.284;2023-06-14T01:00:40;15.50;99.90
58517;DHT22;44308;50.810;0.284;2023-06-14T01:03:05;15.50;99.90
58517;DHT22;44308;50.810;0.284;2023-06-14T01:05:32;15.50;99.90
58517;DHT22;44308;50.810;0.284;2023-06-14T01:08:22;15.40;99.90
58517;DHT22;44308;50.810;0.284;2023-06-14T01:11:10;15.40;99.90
58517;DHT22;44308;50.810;0.284;2023-06-14T01:13:43;15.30;99.90
58517;DHT22;44308;50.810;0.284;2023-06-14T01:16:12;15.30;99.90
58517;DHT22;44308;50.810;0.284;2023-06-14T01:18:39;15.30;99.90
58517;DHT22;44308;50.810;0.284;2023-06-14T01:21:20;15.20;99.90
58517;DHT22;44308;50.810;0.284;2023-06-14T01:23:46;15.20;99.90
58517;DHT22;44308;50.810;0.284;2023-06-14T01:26:21;15.10;99.90
58517;DHT22;44308;50.810;0.284;2023-06-14T01:28:48;15.10;99.90
58517;DHT22;44308;50.810;0.284;2023-06-14T01:31:17;15.00;99.90
58517;DHT22;44308;50.810;0.284;2023-06-14T01:33:45;14.90;99.90
58517;DHT22;44308;50.810;0.284;2023-06-14T01:36:12;14.90;99.90
58517;DHT22;44308;50.810;0.284;2023-06-14T01:38:39;14.80;99.90
58517;DHT22;44308;50.810;0.284;2023-06-14T01:41:05;14.70;99.90
58517;DHT22;44308;50.810;0.284;2023-06-14T01:43:32;14.60;99.90
58517;DHT22;44308;50.810;0.284;2023-06-14T01:46:00;14.50;99.90
58517;DHT22;44308;50.810;0.284;2023-06-14T01:48:26;14.40;99.90
58517;DHT22;44308;50.810;0.284;2023-06-14T01:50:52;14.40;99.90
58517;DHT22;44308;50.810;0.284;2023-06-14T01:53:18;14.30;99.90
58517;DHT22;44308;50.810;0.284;2023-06-14T01:55:44;14.30;99.90
58517;DHT22;44308;50.810;0.284;2023-06-14T01:58:14;14.20;99.90
58517;DHT22;44308;50.810;0.284;2023-06-14T02:00:41;14.10;99.90
58517;DHT22;44308;50.810;0.284;2023-06-14T02:03:08;14.00;99.90
58517;DHT22;44308;50.810;0.284;2023-06-14T02:05:34;14.00;99.90
58517;DHT22;44308;50.810;0.284;2023-06-14T02:08:00;14.00;99.90
58517;DHT22;44308;50.810;0.284;2023-06-14T02:10:26;13.90;99.90
58517;DHT22;44308;50.810;0.284;2023-06-14T02:12:51;13.90;99.90
58517;DHT22;44308;50.810;0.284;2023-06-14T02:15:17;13.80;99.90
58517;DHT22;44308;50.810;0.284;2023-06-14T02:17:44;13.80;99.90
58517;DHT22;44308;50.810;0.284;2023-06-14T02:20:10;13.80;99.90
58517;DHT22;44308;50.810;0.284;2023-06-14T02:22:36;13.80;99.90
58517;DHT22;44308;50.810;0.284;2023-06-14T02:25:02;13.80;99.90
58517;DHT22;44308;50.810;0.284;2023-06-14T02:27:28;13.70;99.90
58517;DHT22;44308;50.810;0.284;2023-06-14T02:29:54;13.70;99.90
58517;DHT22;44308;50.810;0.284;2023-06-14T02:32:19;13.60;99.90
58517;DHT22;44308;50.810;0.284;2023-06-14T02:34:45;13.60;99.90
58517;DHT22;44308;50.810;0.284;2023-06-14T02:37:15;13.60;99.90
58517;DHT22;44308;50.810;0.284;2023-06-14T02:39:41;13.60;99.90
58517;DHT22;44308;50.810;0.284;2023-06-14T02:42:07;13.50;99.90
58517;DHT22;44308;50.810;0.284;2023-06-14T02:44:33;13.50;99.90
58517;DHT22;44308;50.810;0.284;2023-06-14T02:46:58;13.60;99.90
58517;DHT22;44308;50.810;0.284;2023-06-14T02:49:26;13.50;99.90
58517;DHT22;44308;50.810;0.284;2023-06-14T02:51:52;13.50;99.90
58517;DHT22;44308;50.810;0.284;2023-06-14T02:54:17;13.40;99.90
58517;DHT22;44308;50.810;0.284;2023-06-14T02:56:43;13.40;99.90
58517;DHT22;44308;50.810;0.284;2023-06-14T02:59:09;13.40;99.90
58517;DHT22;44308;50.810;0.284;2023-06-14T03:01:35;13.40;99.90
58517;DHT22;44308;50.810;0.284;2023-06-14T03:04:01;13.40;99.90
58517;DHT22;44308;50.810;0.284;2023-06-14T03:06:31;13.40;99.90
58517;DHT22;44308;50.810;0.284;2023-06-14T03:08:57;13.30;99.90
58517;DHT22;44308;50.810;0.284;2023-06-14T03:11:25;13.40;99.90
58517;DHT22;44308;50.810;0.284;2023-06-14T03:13:52;13.30;99.90
58517;DHT22;44308;50.810;0.284;2023-06-14T03:16:18;13.30;99.90
58517;DHT22;44308;50.810;0.284;2023-06-14T03:18:55;13.20;99.90
58517;DHT22;44308;50.810;0.284;2023-06-14T03:21:21;13.20;99.90
58517;DHT22;44308;50.810;0.284;2023-06-14T03:23:47;13.10;99.90
58517;DHT22;44308;50.810;0.284;2023-06-14T03:26:14;13.10;99.90
58517;DHT22;44308;50.810;0.284;2023-06-14T03:28:45;13.00;99.90
58517;DHT22;44308;50.810;0.284;2023-06-14T03:31:12;13.00;99.90
58517;DHT22;44308;50.810;0.284;2023-06-14T03:33:38;13.00;99.90
58517;DHT22;44308;50.810;0.284;2023-06-14T03:36:04;12.90;99.90
58517;DHT22;44308;50.810;0.284;2023-06-14T03:38:30;12.90;99.90
58517;DHT22;44308;50.810;0.284;2023-06-14T03:40:56;12.90;99.90
58517;DHT22;44308;50.810;0.284;2023-06-14T03:43:22;12.90;99.90
58517;DHT22;44308;50.810;0.284;2023-06-14T03:45:50;12.90;99.90
58517;DHT22;44308;50.810;0.284;2023-06-14T03:48:16;12.80;99.90
58517;DHT22;44308;50.810;0.284;2023-06-14T03:50:41;12.80;99.90
58517;DHT22;44308;50.810;0.284;2023-06-14T03:53:08;12.70;99.90
58517;DHT22;44308;50.810;0.284;2023-06-14T03:55:34;12.70;99.90
58517;DHT22;44308;50.810;0.284;2023-06-14T03:58:01;12.70;99.90
58517;DHT22;44308;50.810;0.284;2023-06-14T04:00:26;12.70;99.90
58517;DHT22;44308;50.810;0.284;2023-06-14T04:02:52;12.70;99.90
58517;DHT22;44308;50.810;0.284;2023-06-14T04:05:19;12.70;99.90
58517;DHT22;44308;50.810;0.284;2023-06-14T04:07:48;12.70;99.90
58517;DHT22;44308;50.810;0.284;2023-06-14T04:10:15;12.70;99.90
58517;DHT22;44308;50.810;0.284;2023-06-14T04:12:42;12.70;99.90
58517;DHT22;44308;50.810;0.284;2023-06-14T04:15:08;12.70;99.90
58517;DHT22;44308;50.810;0.284;2023-06-14T04:17:34;12.70;99.90
58517;DHT22;44308;50.810;0.284;2023-06-14T04:20:02;12.70;99.90
58517;DHT22;44308;50.810;0.284;2023-06-14T04:22:32;12.70;99.90
58517;DHT22;44308;50.810;0.284;2023-06-14T04:24:59;12.80;99.90
58517;DHT22;44308;50.810;0.284;2023-06-14T04:27:26;12.80;99.90
58517;DHT22;44308;50.810;0.284;2023-06-14T04:29:53;12.80;99.90
58517;DHT22;44308;50.810;0.284;2023-06-14T04:32:28;12.80;99.90
58517;DHT22;44308;50.810;0.284;2023-06-14T04:34:57;12.90;99.90
58517;DHT22;44308;50.810;0.284;2023-06-14T04:37:22;12.90;99.90
58517;DHT22;44308;50.810;0.284;2023-06-14T04:39:49;13.00;99.90
58517;DHT22;44308;50.810;0.284;2023-06-14T04:42:16;13.00;99.90
58517;DHT22;44308;50.810;0.284;2023-06-14T04:44:42;13.10;99.90
58517;DHT22;44308;50.810;0.284;2023-06-14T04:47:10;13.10;99.90
58517;DHT22;44308;50.810;0.284;2023-06-14T04:49:36;13.10;99.90
58517;DHT22;44308;50.810;0.284;2023-06-14T04:52:02;13.20;99.90
58517;DHT22;44308;50.810;0.284;2023-06-14T04:54:28;13.20;99.90
58517;DHT22;44308;50.810;0.284;2023-06-14T04:56:57;13.30;99.90
58517;DHT22;44308;50.810;0.284;2023-06-14T04:59:22;13.30;99.90
58517;DHT22;44308;50.810;0.284;2023-06-14T05:01:51;13.40;99.90
58517;DHT22;44308;50.810;0.284;2023-06-14T05:04:18;13.40;99.90
58517;DHT22;44308;50.810;0.284;2023-06-14T05:06:45;13.60;99.90
58517;DHT22;44308;50.810;0.284;2023-06-14T05:09:14;13.60;99.90
58517;DHT22;44308;50.810;0.284;2023-06-14T05:11:41;13.60;99.90
58517;DHT22;44308;50.810;0.284;2023-06-14T05:14:11;13.70;99.90
58517;DHT22;44308;50.810;0.284;2023-06-14T05:16:37;13.70;99.90
58517;DHT22;44308;50.810;0.284;2023-06-14T05:19:04;13.80;99.90
58517;DHT22;44308;50.810;0.284;2023-06-14T05:21:30;13.90;99.90
58517;DHT22;44308;50.810;0.284;2023-06-14T05:23:57;14.00;99.90
58517;DHT22;44308;50.810;0.284;2023-06-14T05:26:23;14.00;99.90
58517;DHT22;44308;50.810;0.284;2023-06-14T05:28:50;14.10;99.90
58517;DHT22;44308;50.810;0.284;2023-06-14T05:31:18;14.20;99.90
58517;DHT22;44308;50.810;0.284;2023-06-14T05:33:43;14.20;99.90
58517;DHT22;44308;50.810;0.284;2023-06-14T05:36:09;14.40;99.90
58517;DHT22;44308;50.810;0.284;2023-06-14T05:38:35;14.40;99.90
58517;DHT22;44308;50.810;0.284;2023-06-14T05:41:01;14.50;99.90
58517;DHT22;44308;50.810;0.284;2023-06-14T05:43:26;14.60;99.90
58517;DHT22;44308;50.810;0.284;2023-06-14T05:45:52;14.70;99.90
58517;DHT22;44308;50.810;0.284;2023-06-14T05:48:19;14.90;99.90
58517;DHT22;44308;50.810;0.284;2023-06-14T05:50:45;15.00;99.90
58517;DHT22;44308;50.810;0.284;2023-06-14T05:53:10;15.20;99.90
58517;DHT22;44308;50.810;0.284;2023-06-14T05:55:36;15.30;99.90
58517;DHT22;44308;50.810;0.284;2023-06-14T05:58:02;15.40;99.90
58517;DHT22;44308;50.810;0.284;2023-06-14T06:00:28;15.40;99.90
58517;DHT22;44308;50.810;0.284;2023-06-14T06:02:54;15.50;99.90
58517;DHT22;44308;50.810;0.284;2023-06-14T06:05:22;15.60;99.90
58517;DHT22;44308;50.810;0.284;2023-06-14T06:07:48;15.70;99.90
58517;DHT22;44308;50.810;0.284;2023-06-14T06:10:13;15.80;99.90
58517;DHT22;44308;50.810;0.284;2023-06-14T06:12:41;15.90;99.90
58517;DHT22;44308;50.810;0.284;2023-06-14T06:15:07;16.00;99.90
58517;DHT22;44308;50.810;0.284;2023-06-14T06:17:33;16.20;99.90
58517;DHT22;44308;50.810;0.284;2023-06-14T06:19:59;16.30;99.90
58517;DHT22;44308;50.810;0.284;2023-06-14T06:22:24;16.50;99.90
58517;DHT22;44308;50.810;0.284;2023-06-14T06:24:50;17.30;99.90
58517;DHT22;44308;50.810;0.284;2023-06-14T06:27:16;18.40;99.90
58517;DHT22;44308;50.810;0.284;2023-06-14T06:29:44;19.50;99.90
58517;DHT22;44308;50.810;0.284;2023-06-14T06:32:10;20.60;99.90
58517;DHT22;44308;50.810;0.284;2023-06-14T06:34:35;21.50;99.90
58517;DHT22;44308;50.810;0.284;2023-06-14T06:37:02;22.30;99.90
58517;DHT22;44308;50.810;0.284;2023-06-14T06:39:28;23.10;99.90
58517;DHT22;44308;50.810;0.284;2023-06-14T06:41:57;23.90;99.90
58517;DHT22;44308;50.810;0.284;2023-06-14T06:44:22;24.50;99.90
58517;DHT22;44308;50.810;0.284;2023-06-14T06:46:48;25.00;99.90
58517;DHT22;44308;50.810;0.284;2023-06-14T06:49:14;25.20;99.90
58517;DHT22;44308;50.810;0.284;2023-06-14T06:51:43;25.10;99.90
58517;DHT22;44308;50.810;0.284;2023-06-14T06:54:10;25.40;99.90
58517;DHT22;44308;50.810;0.284;2023-06-14T06:56:36;25.30;99.90
58517;DHT22;44308;50.810;0.284;2023-06-14T06:59:02;25.90;99.90
58517;DHT22;44308;50.810;0.284;2023-06-14T07:01:27;25.90;99.90
58517;DHT22;44308;50.810;0.284;2023-06-14T07:03:55;26.10;99.90
58517;DHT22;44308;50.810;0.284;2023-06-14T07:06:21;26.00;99.90
58517;DHT22;44308;50.810;0.284;2023-06-14T07:08:47;26.60;99.90
58517;DHT22;44308;50.810;0.284;2023-06-14T07:11:15;26.90;99.90
58517;DHT22;44308;50.810;0.284;2023-06-14T07:13:41;27.50;99.90
58517;DHT22;44308;50.810;0.284;2023-06-14T07:16:06;27.50;99.90
58517;DHT22;44308;50.810;0.284;2023-06-14T07:18:32;27.50;99.90
58517;DHT22;44308;50.810;0.284;2023-06-14T07:20:58;27.40;99.90
58517;DHT22;44308;50.810;0.284;2023-06-14T07:23:23;27.40;99.90
58517;DHT22;44308;50.810;0.284;2023-06-14T07:25:49;27.60;99.90
58517;DHT22;44308;50.810;0.284;2023-06-14T07:28:16;27.80;99.90
58517;DHT22;44308;50.810;0.284;2023-06-14T07:30:43;28.30;99.90
58517;DHT22;44308;50.810;0.284;2023-06-14T07:33:09;28.10;99.90
58517;DHT22;44308;50.810;0.284;2023-06-14T07:35:35;28.10;99.90
58517;DHT22;44308;50.810;0.284;2023-06-14T07:38:01;28.00;99.90
58517;DHT22;44308;50.810;0.284;2023-06-14T07:40:27;28.60;99.90
58517;DHT22;44308;50.810;0.284;2023-06-14T07:42:53;28.80;99.90
58517;DHT22;44308;50.810;0.284;2023-06-14T07:45:20;29.30;99.90
58517;DHT22;44308;50.810;0.284;2023-06-14T07:47:46;29.30;99.90
58517;DHT22;44308;50.810;0.284;2023-06-14T07:50:11;29.20;99.90
58517;DHT22;44308;50.810;0.284;2023-06-14T07:52:38;29.00;99.90
58517;DHT22;44308;50.810;0.284;2023-06-14T07:55:04;28.90;99.90
58517;DHT22;44308;50.810;0.284;2023-06-14T07:57:30;29.30;99.90
58517;DHT22;44308;50.810;0.284;2023-06-14T07:59:56;29.30;99.90
58517;DHT22;44308;50.810;0.284;2023-06-14T08:02:22;29.30;99.90
58517;DHT22;44308;50.810;0.284;2023-06-14T08:04:48;29.70;99.90
58517;DHT22;44308;50.810;0.284;2023-06-14T08:07:14;30.00;99.90
58517;DHT22;44308;50.810;0.284;2023-06-14T08:09:40;30.20;99.90
58517;DHT22;44308;50.810;0.284;2023-06-14T08:12:06;30.30;99.90
58517;DHT22;44308;50.810;0.284;2023-06-14T08:14:35;30.20;99.90
58517;DHT22;44308;50.810;0.284;2023-06-14T08:17:01;30.20;99.90
58517;DHT22;44308;50.810;0.284;2023-06-14T08:19:28;31.00;99.90
58517;DHT22;44308;50.810;0.284;2023-06-14T08:21:54;31.40;99.90
58517;DHT22;44308;50.810;0.284;2023-06-14T08:24:23;31.20;99.90
58517;DHT22;44308;50.810;0.284;2023-06-14T08:26:55;31.20;99.90
58517;DHT22;44308;50.810;0.284;2023-06-14T08:29:22;31.90;99.90
58517;DHT22;44308;50.810;0.284;2023-06-14T08:31:48;32.20;99.90
58517;DHT22;44308;50.810;0.284;2023-06-14T08:34:13;32.00;99.90
58517;DHT22;44308;50.810;0.284;2023-06-14T08:36:39;32.00;99.90
58517;DHT22;44308;50.810;0.284;2023-06-14T08:39:08;32.70;99.90
58517;DHT22;44308;50.810;0.284;2023-06-14T08:41:35;32.20;99.90
58517;DHT22;44308;50.810;0.284;2023-06-14T08:44:01;31.40;99.90
58517;DHT22;44308;50.810;0.284;2023-06-14T08:46:27;32.20;99.90
58517;DHT22;44308;50.810;0.284;2023-06-14T08:48:56;32.70;99.90
58517;DHT22;44308;50.810;0.284;2023-06-14T08:51:25;33.40;99.90
58517;DHT22;44308;50.810;0.284;2023-06-14T08:53:56;33.00;99.90
58517;DHT22;44308;50.810;0.284;2023-06-14T08:56:28;32.50;99.90
58517;DHT22;44308;50.810;0.284;2023-06-14T08:58:55;32.80;99.90
58517;DHT22;44308;50.810;0.284;2023-06-14T09:01:22;32.90;99.90
58517;DHT22;44308;50.810;0.284;2023-06-14T09:03:50;33.50;99.90
58517;DHT22;44308;50.810;0.284;2023-06-14T09:06:16;33.60;99.90
58517;DHT22;44308;50.810;0.284;2023-06-14T09:08:42;33.40;99.90
58517;DHT22;44308;50.810;0.284;2023-06-14T09:11:08;33.30;99.90
58517;DHT22;44308;50.810;0.284;2023-06-14T09:13:35;33.30;99.90
58517;DHT22;44308;50.810;0.284;2023-06-14T09:16:01;33.80;99.90
58517;DHT22;44308;50.810;0.284;2023-06-14T09:18:37;33.70;99.90
58517;DHT22;44308;50.810;0.284;2023-06-14T09:21:06;33.80;99.90
58517;DHT22;44308;50.810;0.284;2023-06-14T09:23:40;34.20;99.90
58517;DHT22;44308;50.810;0.284;2023-06-14T09:26:14;33.50;99.90
58517;DHT22;44308;50.810;0.284;2023-06-14T09:28:49;33.10;99.90
58517;DHT22;44308;50.810;0.284;2023-06-14T09:31:17;32.90;99.90
58517;DHT22;44308;50.810;0.284;2023-06-14T09:33:47;33.40;99.90
58517;DHT22;44308;50.810;0.284;2023-06-14T09:36:24;33.40;99.90
58517;DHT22;44308;50.810;0.284;2023-06-14T09:38:53;33.10;99.90
58517;DHT22;44308;50.810;0.284;2023-06-14T09:41:20;33.20;99.90
58517;DHT22;44308;50.810;0.284;2023-06-14T09:43:47;33.40;99.90
58517;DHT22;44308;50.810;0.284;2023-06-14T09:46:13;33.40;99.90
58517;DHT22;44308;50.810;0.284;2023-06-14T09:48:39;33.70;99.90
58517;DHT22;44308;50.810;0.284;2023-06-14T09:51:10;34.20;99.90
58517;DHT22;44308;50.810;0.284;2023-06-14T09:53:39;34.20;99.90
58517;DHT22;44308;50.810;0.284;2023-06-14T09:56:07;34.40;99.90
58517;DHT22;44308;50.810;0.284;2023-06-14T09:58:37;33.80;99.90
58517;DHT22;44308;50.810;0.284;2023-06-14T10:01:06;34.10;99.90
58517;DHT22;44308;50.810;0.284;2023-06-14T10:03:34;33.90;99.90
58517;DHT22;44308;50.810;0.284;2023-06-14T10:06:03;33.40;99.90
58517;DHT22;44308;50.810;0.284;2023-06-14T10:08:31;33.90;99.90
58517;DHT22;44308;50.810;0.284;2023-06-14T10:10:58;34.80;99.90
58517;DHT22;44308;50.810;0.284;2023-06-14T10:13:26;34.90;99.90
58517;DHT22;44308;50.810;0.284;2023-06-14T10:16:15;34.80;99.90
58517;DHT22;44308;50.810;0.284;2023-06-14T10:18:58;34.90;99.90
58517;DHT22;44308;50.810;0.284;2023-06-14T10:24:20;35.30;99.90
58517;DHT22;44308;50.810;0.284;2023-06-14T10:26:57;34.90;99.90
58517;DHT22;44308;50.810;0.284;2023-06-14T10:29:24;35.20;99.90
58517;DHT22;44308;50.810;0.284;2023-06-14T10:31:53;35.20;99.90
58517;DHT22;44308;50.810;0.284;2023-06-14T10:34:30;34.90;99.90
58517;DHT22;44308;50.810;0.284;2023-06-14T10:39:39;35.10;99.90
58517;DHT22;44308;50.810;0.284;2023-06-14T10:42:06;35.10;99.90
58517;DHT22;44308;50.810;0.284;2023-06-14T10:44:43;34.10;99.90
58517;DHT22;44308;50.810;0.284;2023-06-14T10:47:20;34.10;99.90
58517;DHT22;44308;50.810;0.284;2023-06-14T10:49:54;34.30;99.90
58517;DHT22;44308;50.810;0.284;2023-06-14T10:52:23;34.30;99.90
58517;DHT22;44308;50.810;0.284;2023-06-14T10:57:58;34.00;99.90
58517;DHT22;44308;50.810;0.284;2023-06-14T11:00:28;33.80;99.90
58517;DHT22;44308;50.810;0.284;2023-06-14T11:08:29;33.50;99.90
58517;DHT22;44308;50.810;0.284;2023-06-14T11:11:00;33.90;99.90
58517;DHT22;44308;50.810;0.284;2023-06-14T11:13:26;33.90;99.90
58517;DHT22;44308;50.810;0.284;2023-06-14T11:15:52;33.50;99.90
58517;DHT22;44308;50.810;0.284;2023-06-14T11:18:22;33.10;99.90
58517;DHT22;44308;50.810;0.284;2023-06-14T11:20:53;32.90;99.90
58517;DHT22;44308;50.810;0.284;2023-06-14T11:23:21;32.50;99.90
58517;DHT22;44308;50.810;0.284;2023-06-14T11:25:53;32.70;99.90
58517;DHT22;44308;50.810;0.284;2023-06-14T11:28:19;32.70;99.90
58517;DHT22;44308;50.810;0.284;2023-06-14T11:30:59;31.90;99.90
58517;DHT22;44308;50.810;0.284;2023-06-14T11:33:25;32.40;99.90
58517;DHT22;44308;50.810;0.284;2023-06-14T11:35:51;32.70;99.90
58517;DHT22;44308;50.810;0.284;2023-06-14T11:38:17;32.70;99.90
58517;DHT22;44308;50.810;0.284;2023-06-14T11:40:43;32.80;99.90
58517;DHT22;44308;50.810;0.284;2023-06-14T11:43:09;33.10;99.90
58517;DHT22;44308;50.810;0.284;2023-06-14T11:45:35;32.60;99.90
58517;DHT22;44308;50.810;0.284;2023-06-14T11:48:01;32.50;99.90
58517;DHT22;44308;50.810;0.284;2023-06-14T11:50:27;31.90;99.90
58517;DHT22;44308;50.810;0.284;2023-06-14T11:52:58;31.60;99.90
58517;DHT22;44308;50.810;0.284;2023-06-14T11:55:39;31.10;99.90
58517;DHT22;44308;50.810;0.284;2023-06-14T11:58:06;30.80;99.90
58517;DHT22;44308;50.810;0.284;2023-06-14T12:00:35;31.10;99.90
58517;DHT22;44308;50.810;0.284;2023-06-14T12:03:02;31.40;99.90
58517;DHT22;44308;50.810;0.284;2023-06-14T12:05:28;31.70;99.90
58517;DHT22;44308;50.810;0.284;2023-06-14T12:08:03;31.30;99.90
58517;DHT22;44308;50.810;0.284;2023-06-14T12:10:29;31.50;99.90
58517;DHT22;44308;50.810;0.284;2023-06-14T12:12:59;31.70;99.90
58517;DHT22;44308;50.810;0.284;2023-06-14T12:15:27;31.60;99.90
58517;DHT22;44308;50.810;0.284;2023-06-14T12:17:54;31.90;99.90
58517;DHT22;44308;50.810;0.284;2023-06-14T12:20:20;32.20;99.90
58517;DHT22;44308;50.810;0.284;2023-06-14T12:22:54;32.30;99.90
58517;DHT22;44308;50.810;0.284;2023-06-14T12:25:33;32.10;99.90
58517;DHT22;44308;50.810;0.284;2023-06-14T12:28:09;32.40;99.90
58517;DHT22;44308;50.810;0.284;2023-06-14T12:30:37;31.80;99.90
58517;DHT22;44308;50.810;0.284;2023-06-14T12:33:03;31.30;99.90
58517;DHT22;44308;50.810;0.284;2023-06-14T12:35:29;31.60;99.90
58517;DHT22;44308;50.810;0.284;2023-06-14T12:37:55;31.90;99.90
58517;DHT22;44308;50.810;0.284;2023-06-14T12:40:22;32.30;99.90
58517;DHT22;44308;50.810;0.284;2023-06-14T12:42:47;32.40;99.90
58517;DHT22;44308;50.810;0.284;2023-06-14T12:45:16;32.20;99.90
58517;DHT22;44308;50.810;0.284;2023-06-14T12:47:42;31.80;99.90
58517;DHT22;44308;50.810;0.284;2023-06-14T12:50:09;31.70;99.90
58517;DHT22;44308;50.810;0.284;2023-06-14T12:52:38;31.90;99.90
58517;DHT22;44308;50.810;0.284;2023-06-14T12:55:04;31.90;99.90
58517;DHT22;44308;50.810;0.284;2023-06-14T12:57:30;32.00;99.90
58517;DHT22;44308;50.810;0.284;2023-06-14T12:59:55;32.20;99.90
58517;DHT22;44308;50.810;0.284;2023-06-14T13:02:21;31.80;99.90
58517;DHT22;44308;50.810;0.284;2023-06-14T13:04:51;31.50;99.90
58517;DHT22;44308;50.810;0.284;2023-06-14T13:07:17;31.50;99.90
58517;DHT22;44308;50.810;0.284;2023-06-14T13:09:43;31.50;99.90
58517;DHT22;44308;50.810;0.284;2023-06-14T13:12:11;31.30;99.90
58517;DHT22;44308;50.810;0.284;2023-06-14T13:14:38;31.70;99.90
58517;DHT22;44308;50.810;0.284;2023-06-14T13:17:03;31.20;99.90
58517;DHT22;44308;50.810;0.284;2023-06-14T13:19:29;31.20;99.90
58517;DHT22;44308;50.810;0.284;2023-06-14T13:21:55;31.10;99.90
58517;DHT22;44308;50.810;0.284;2023-06-14T13:24:21;31.50;99.90
58517;DHT22;44308;50.810;0.284;2023-06-14T13:26:46;31.50;99.90
58517;DHT22;44308;50.810;0.284;2023-06-14T13:29:15;31.40;99.90
58517;DHT22;44308;50.810;0.284;2023-06-14T13:31:41;30.80;99.90
58517;DHT22;44308;50.810;0.284;2023-06-14T13:34:07;30.60;99.90
58517;DHT22;44308;50.810;0.284;2023-06-14T13:36:33;30.40;99.90
58517;DHT22;44308;50.810;0.284;2023-06-14T13:38:59;30.60;99.90
58517;DHT22;44308;50.810;0.284;2023-06-14T13:41:28;30.20;99.90
58517;DHT22;44308;50.810;0.284;2023-06-14T13:43:59;30.30;99.90
58517;DHT22;44308;50.810;0.284;2023-06-14T13:46:25;30.40;99.90
58517;DHT22;44308;50.810;0.284;2023-06-14T13:48:52;30.60;99.90
58517;DHT22;44308;50.810;0.284;2023-06-14T13:51:18;31.00;99.90
58517;DHT22;44308;50.810;0.284;2023-06-14T13:53:50;31.30;99.90
58517;DHT22;44308;50.810;0.284;2023-06-14T13:56:16;30.80;99.90
58517;DHT22;44308;50.810;0.284;2023-06-14T13:58:42;30.80;99.90
58517;DHT22;44308;50.810;0.284;2023-06-14T14:01:11;30.70;99.90
58517;DHT22;44308;50.810;0.284;2023-06-14T14:03:37;30.30;99.90
58517;DHT22;44308;50.810;0.284;2023-06-14T14:06:04;30.20;99.90
58517;DHT22;44308;50.810;0.284;2023-06-14T14:08:30;30.20;99.90
58517;DHT22;44308;50.810;0.284;2023-06-14T14:10:56;30.10;99.90
58517;DHT22;44308;50.810;0.284;2023-06-14T14:13:22;30.30;99.90
58517;DHT22;44308;50.810;0.284;2023-06-14T14:15:48;30.30;99.90
58517;DHT22;44308;50.810;0.284;2023-06-14T14:18:17;30.50;99.90
58517;DHT22;44308;50.810;0.284;2023-06-14T14:20:43;30.60;99.90
58517;DHT22;44308;50.810;0.284;2023-06-14T14:23:09;30.40;99.90
58517;DHT22;44308;50.810;0.284;2023-06-14T14:25:35;30.40;99.90
58517;DHT22;44308;50.810;0.284;2023-06-14T14:28:01;30.80;99.90
58517;DHT22;44308;50.810;0.284;2023-06-14T14:30:26;30.80;99.90
58517;DHT22;44308;50.810;0.284;2023-06-14T14:32:52;30.50;99.90
58517;DHT22;44308;50.810;0.284;2023-06-14T14:35:19;30.60;99.90
58517;DHT22;44308;50.810;0.284;2023-06-14T14:37:45;30.40;99.90
58517;DHT22;44308;50.810;0.284;2023-06-14T14:40:11;30.20;99.90
58517;DHT22;44308;50.810;0.284;2023-06-14T14:42:37;30.00;99.90
58517;DHT22;44308;50.810;0.284;2023-06-14T14:45:03;29.80;99.90
58517;DHT22;44308;50.810;0.284;2023-06-14T14:47:29;29.80;99.90
58517;DHT22;44308;50.810;0.284;2023-06-14T14:49:55;30.10;99.90
58517;DHT22;44308;50.810;0.284;2023-06-14T14:52:21;30.00;99.90
58517;DHT22;44308;50.810;0.284;2023-06-14T14:54:46;29.60;99.90
58517;DHT22;44308;50.810;0.284;2023-06-14T14:57:12;29.70;99.90
58517;DHT22;44308;50.810;0.284;2023-06-14T14:59:40;29.80;99.90
58517;DHT22;44308;50.810;0.284;2023-06-14T15:02:06;30.10;99.90
58517;DHT22;44308;50.810;0.284;2023-06-14T15:04:32;30.20;99.90
58517;DHT22;44308;50.810;0.284;2023-06-14T15:06:57;30.00;99.90
58517;DHT22;44308;50.810;0.284;2023-06-14T15:09:23;29.50;99.90
58517;DHT22;44308;50.810;0.284;2023-06-14T15:11:49;29.10;99.90
58517;DHT22;44308;50.810;0.284;2023-06-14T15:14:14;29.00;99.90
58517;DHT22;44308;50.810;0.284;2023-06-14T15:16:41;29.20;99.90
58517;DHT22;44308;50.810;0.284;2023-06-14T15:19:07;29.40;99.90
58517;DHT22;44308;50.810;0.284;2023-06-14T15:21:33;29.60;99.90
58517;DHT22;44308;50.810;0.284;2023-06-14T15:23:58;29.70;99.90
58517;DHT22;44308;50.810;0.284;2023-06-14T15:26:24;29.70;99.90
58517;DHT22;44308;50.810;0.284;2023-06-14T15:28:52;29.40;99.90
58517;DHT22;44308;50.810;0.284;2023-06-14T15:31:17;29.50;99.90
58517;DHT22;44308;50.810;0.284;2023-06-14T15:33:43;29.70;99.90
58517;DHT22;44308;50.810;0.284;2023-06-14T15:36:10;29.50;99.90
58517;DHT22;44308;50.810;0.284;2023-06-14T15:38:36;29.40;99.90
58517;DHT22;44308;50.810;0.284;2023-06-14T15:41:02;29.50;99.90
58517;DHT22;44308;50.810;0.284;2023-06-14T15:43:28;29.20;99.90
58517;DHT22;44308;50.810;0.284;2023-06-14T15:45:54;29.00;99.90